Time;durP1;ratioP1;P1;durP2;ratioP2;P2;SDS_P1;SDS_P2;PMS_P1;PMS_P2;Temp;Humidity;BMP_temperature;BMP_pressure;BME280_temperature;BME280_humidity;BME280_pressure;Samples;Min_cycle;Max_cycle;Signal;HPM_P1;HPM_P2
2023/01/30 00:00:20;;;;;;;23.83;12.03;;;;;;;3.02;nan;102152.81;4791431;29;20465;-91
2023/01/30 00:02:47;;;;;;;40.40;18.63;;;;;;;3.03;nan;102151.84;4806476;29;20600;-91
2023/01/30 00:05:17;;;;;;;39.03;17.80;;;;;;;3.04;nan;102161.66;4777039;29;20463;-91
2023/01/30 00:07:45;;;;;;;29.67;15.60;;;;;;;3.01;nan;102156.47;4791299;29;21007;-89
2023/01/30 00:10:25;;;;;;;30.20;14.93;;;;;;;3.02;nan;102152.81;4791378;29;20465;-89
2023/01/30 00:13:11;;;;;;;29.03;16.13;;;;;;;3.04;nan;102150.84;4791978;29;20450;-90
2023/01/30 00:15:47;;;;;;;29.33;15.30;;;;;;;3.02;nan;102159.06;4806127;29;20481;-92
2023/01/30 00:18:27;;;;;;;34.20;15.30;;;;;;;2.99;nan;102150.31;4791409;29;20466;-91
2023/01/30 00:21:03;;;;;;;33.60;15.00;;;;;;;3.02;nan;102152.81;4790999;29;20839;-91
2023/01/30 00:23:44;;;;;;;30.13;15.13;;;;;;;3.00;nan;102154.75;4791852;29;20472;-92
2023/01/30 00:26:14;;;;;;;31.03;16.60;;;;;;;2.98;nan;102148.59;4791494;29;20474;-90
2023/01/30 00:28:55;;;;;;;40.43;15.10;;;;;;;2.92;nan;102139.09;4777098;29;20484;-92
2023/01/30 00:31:26;;;;;;;34.03;15.00;;;;;;;2.98;nan;102151.28;4776499;29;20458;-92
2023/01/30 00:34:07;;;;;;;26.07;10.83;;;;;;;2.88;nan;102144.84;4806332;29;20454;-92
2023/01/30 00:36:40;;;;;;;29.13;16.17;;;;;;;2.86;nan;102133.28;4791463;29;20458;-92
2023/01/30 00:39:18;;;;;;;35.27;17.37;;;;;;;2.88;nan;102150.25;4805747;29;20470;-87
2023/01/30 00:47:41;;;;;;;27.37;12.53;;;;;;;2.82;nan;102134.47;4809710;29;20454;-92
2023/01/30 00:50:15;;;;;;;27.77;12.53;;;;;;;2.80;nan;102125.63;4795300;29;20448;-92
2023/01/30 00:52:53;;;;;;;22.30;8.73;;;;;;;2.74;nan;102122.38;4810060;29;20446;-90
2023/01/30 00:55:21;;;;;;;13.70;4.80;;;;;;;2.75;nan;102120.53;4795236;29;20606;-90
2023/01/30 00:58:00;;;;;;;11.20;5.80;;;;;;;2.69;nan;102102.09;4794467;29;20487;-90
2023/01/30 01:04:11;;;;;;;24.03;11.00;;;;;;;2.74;nan;102116.09;4808515;29;20489;-90
2023/01/30 01:06:39;;;;;;;36.77;15.20;;;;;;;2.69;nan;102119.13;4792405;29;20942;-89
2023/01/30 01:09:09;;;;;;;24.83;11.17;;;;;;;2.63;nan;102116.88;4765259;29;21064;-91
2023/01/30 01:11:53;;;;;;;30.23;13.50;;;;;;;2.63;nan;102130.38;4809391;29;20454;-90
2023/01/30 01:14:45;;;;;;;21.47;9.93;;;;;;;2.62;nan;102123.25;4786535;30;20479;-92
2023/01/30 01:17:38;;;;;;;25.37;11.43;;;;;;;2.62;nan;102117.84;4809175;29;20469;-92
2023/01/30 01:20:23;;;;;;;20.73;10.70;;;;;;;2.61;nan;102116.13;4808773;29;20515;-91
2023/01/30 01:22:55;;;;;;;24.47;12.73;;;;;;;2.52;nan;102105.97;4809501;29;20446;-92
2023/01/30 01:25:40;;;;;;;17.90;9.20;;;;;;;2.56;nan;102114.72;4794232;29;20466;-92
2023/01/30 01:28:08;;;;;;;15.73;7.43;;;;;;;2.52;nan;102122.16;4794067;29;20541;-91
2023/01/30 01:30:51;;;;;;;18.03;8.30;;;;;;;2.52;nan;102121.28;4779266;29;20507;-91
2023/01/30 01:33:34;;;;;;;11.43;6.00;;;;;;;2.47;nan;102105.47;4794391;29;20518;-90
2023/01/30 01:36:20;;;;;;;6.40;3.27;;;;;;;2.43;nan;102107.50;4793620;29;20461;-91
2023/01/30 01:42:35;;;;;;;16.23;7.70;;;;;;;2.43;nan;102117.44;4809483;29;21001;-92
2023/01/30 01:45:28;;;;;;;11.60;6.73;;;;;;;2.38;nan;102120.44;4794077;29;20465;-90
2023/01/30 01:48:46;;;;;;;10.83;5.60;;;;;;;2.36;nan;102118.81;4793583;29;20462;-92
2023/01/30 01:58:09;;;;;;;4.60;2.80;;;;;;;2.23;nan;102094.53;4812190;29;20437;-92
2023/01/30 02:00:49;;;;;;;7.90;4.73;;;;;;;2.27;nan;102111.38;4784324;29;20603;-92
2023/01/30 02:03:20;;;;;;;11.60;5.53;;;;;;;2.28;nan;102121.19;4814968;29;20497;-92
2023/01/30 02:05:57;;;;;;;4.13;2.50;;;;;;;2.18;nan;102103.91;4791526;29;20934;-91
2023/01/30 02:08:50;;;;;;;6.10;2.73;;;;;;;2.20;nan;102124.41;4793267;29;20477;-91
2023/01/30 02:11:55;;;;;;;10.40;3.67;;;;;;;2.24;nan;102133.16;4808180;29;20470;-91
2023/01/30 02:14:47;;;;;;;8.60;4.70;;;;;;;2.20;nan;102126.25;4808757;29;20458;-90
2023/01/30 02:17:20;;;;;;;7.57;4.10;;;;;;;2.14;nan;102123.97;4808948;29;20538;-90
2023/01/30 02:23:34;;;;;;;6.40;3.40;;;;;;;2.14;nan;102132.06;4808801;29;20464;-92
2023/01/30 02:26:45;;;;;;;3.07;2.23;;;;;;;2.18;nan;102133.59;4793239;29;20881;-91
2023/01/30 02:32:56;;;;;;;6.00;2.83;;;;;;;2.13;nan;102130.31;4809292;29;20478;-91
2023/01/30 02:36:01;;;;;;;3.90;2.80;;;;;;;2.12;nan;102136.72;4808563;29;20462;-91
2023/01/30 02:39:17;;;;;;;6.53;3.70;;;;;;;2.13;nan;102130.31;4809072;29;20454;-91
2023/01/30 02:45:11;;;;;;;10.00;4.10;;;;;;;2.10;nan;102144.03;4808407;29;20458;-92
2023/01/30 02:48:00;;;;;;;5.50;3.27;;;;;;;2.05;nan;102129.03;4779776;29;20852;-92
2023/01/30 02:51:05;;;;;;;4.43;2.87;;;;;;;2.02;nan;102140.03;4807636;29;20466;-91
2023/01/30 02:53:42;;;;;;;7.10;3.50;;;;;;;2.01;nan;102137.44;4822822;29;20447;-91
2023/01/30 02:56:11;;;;;;;13.47;4.00;;;;;;;1.95;nan;102119.84;4793184;29;20442;-92
2023/01/30 02:58:55;;;;;;;6.93;3.30;;;;;;;1.99;nan;102128.59;4793010;29;20938;-91
2023/01/30 03:02:14;;;;;;;9.40;3.60;;;;;;;1.97;nan;102131.38;4793027;29;20446;-92
2023/01/30 03:05:21;;;;;;;6.50;3.00;;;;;;;1.98;nan;102126.84;4806922;29;20818;-90
2023/01/30 03:08:14;;;;;;;6.93;3.10;;;;;;;1.95;nan;102127.06;4822064;29;20464;-92
2023/01/30 03:11:06;;;;;;;5.27;3.10;;;;;;;1.93;nan;102123.59;4807908;29;20873;-91
2023/01/30 03:17:00;;;;;;;11.23;3.57;;;;;;;1.88;nan;102123.06;4807623;29;20516;-90
2023/01/30 03:19:28;;;;;;;6.00;3.20;;;;;;;1.83;nan;102115.28;4792205;29;20462;-90
2023/01/30 03:22:20;;;;;;;6.73;3.20;;;;;;;1.82;nan;102121.66;4792195;29;20523;-92
2023/01/30 03:25:10;;;;;;;7.43;3.40;;;;;;;1.77;nan;102118.38;4807182;29;20506;-90
2023/01/30 03:27:48;;;;;;;8.63;3.80;;;;;;;1.74;nan;102119.44;4807108;29;20469;-92
2023/01/30 03:30:31;;;;;;;6.63;3.30;;;;;;;1.70;nan;102112.56;4791954;29;20501;-91
2023/01/30 03:33:00;;;;;;;7.77;3.40;;;;;;;1.67;nan;102106.50;4807114;29;20458;-91
2023/01/30 03:36:02;;;;;;;9.77;3.40;;;;;;;1.72;nan;102115.16;4777558;29;20794;-91
2023/01/30 03:38:33;;;;;;;6.27;3.40;;;;;;;1.68;nan;102127.97;4807075;29;20458;-92
2023/01/30 03:41:27;;;;;;;5.73;2.90;;;;;;;1.67;nan;102118.16;4777649;29;20471;-91
2023/01/30 03:44:01;;;;;;;5.53;3.13;;;;;;;1.65;nan;102121.91;4806773;29;20831;-90
2023/01/30 03:50:09;;;;;;;4.27;2.70;;;;;;;1.62;nan;102116.72;4807285;29;20888;-91
2023/01/30 03:52:57;;;;;;;5.17;2.90;;;;;;;1.62;nan;102119.41;4777353;29;20458;-91
2023/01/30 03:55:27;;;;;;;5.30;3.00;;;;;;;1.55;nan;102113.56;4806541;29;20518;-91
2023/01/30 03:58:07;;;;;;;3.83;2.60;;;;;;;1.52;nan;102112.94;4791800;29;20460;-90
2023/01/30 04:00:44;;;;;;;6.03;2.63;;;;;;;1.52;nan;102110.25;4776604;29;20458;-91
2023/01/30 04:03:27;;;;;;;6.43;3.30;;;;;;;1.51;nan;102109.38;4792084;29;21013;-92
2023/01/30 04:06:09;;;;;;;4.80;2.90;;;;;;;1.50;nan;102104.09;4806443;29;20472;-92
2023/01/30 04:08:54;;;;;;;4.90;3.20;;;;;;;1.51;nan;102106.69;4806196;29;20518;-90
2023/01/30 04:11:30;;;;;;;3.73;2.53;;;;;;;1.47;nan;102104.28;4806341;29;20454;-92
2023/01/30 04:14:21;;;;;;;7.50;2.97;;;;;;;1.48;nan;102108.72;4791638;29;20998;-90
2023/01/30 04:20:52;;;;;;;4.20;2.60;;;;;;;1.43;nan;102097.38;4789141;30;20422;-92
2023/01/30 04:23:30;;;;;;;5.87;2.77;;;;;;;1.47;nan;102104.28;4797360;29;20462;-90
2023/01/30 04:25:58;;;;;;;4.77;2.80;;;;;;;1.39;nan;102086.78;4802316;29;20458;-89
2023/01/30 04:28:33;;;;;;;4.70;2.50;;;;;;;1.45;nan;102103.53;4790958;29;20446;-91
2023/01/30 04:31:04;;;;;;;4.77;2.40;;;;;;;1.43;nan;102103.63;4791583;29;20469;-91
2023/01/30 04:33:34;;;;;;;9.53;2.50;;;;;;;1.42;nan;102101.88;4807515;29;20466;-91
2023/01/30 04:36:07;;;;;;;5.57;2.87;;;;;;;1.38;nan;102103.06;4791089;29;20522;-90
2023/01/30 04:38:42;;;;;;;6.27;2.00;;;;;;;1.36;nan;102103.16;4806196;29;20823;-91
2023/01/30 04:41:20;;;;;;;3.43;2.40;;;;;;;1.33;nan;102107.91;4764909;29;20461;-89
2023/01/30 04:44:16;;;;;;;3.70;2.30;;;;;;;1.30;nan;102103.56;4805973;29;20484;-91
2023/01/30 04:47:08;;;;;;;3.80;2.03;;;;;;;1.29;nan;102106.38;4805605;29;20803;-91
2023/01/30 04:49:36;;;;;;;4.00;2.70;;;;;;;1.25;nan;102104.84;4805920;29;20551;-91
2023/01/30 04:52:22;;;;;;;4.07;2.10;;;;;;;1.21;nan;102100.59;4791467;29;20466;-91
2023/01/30 04:55:05;;;;;;;3.80;2.10;;;;;;;1.27;nan;102111.84;4790861;29;20458;-91
2023/01/30 04:57:38;;;;;;;5.37;3.00;;;;;;;1.27;nan;102119.94;4791051;29;20495;-90
2023/01/30 05:00:25;;;;;;;4.67;2.20;;;;;;;1.29;nan;102112.63;4790931;29;20839;-90
2023/01/30 05:02:54;;;;;;;4.20;2.17;;;;;;;1.22;nan;102116.66;4805969;29;21017;-91
2023/01/30 05:05:34;;;;;;;4.50;2.63;;;;;;;1.29;nan;102112.63;4789738;29;20474;-90
2023/01/30 05:08:08;;;;;;;4.70;2.60;;;;;;;1.28;nan;102121.66;4787869;29;20455;-90
2023/01/30 05:10:42;;;;;;;7.47;2.50;;;;;;;1.26;nan;102128.97;4787206;29;20504;-91
2023/01/30 05:13:15;;;;;;;4.60;2.60;;;;;;;1.23;nan;102128.31;4776565;29;20446;-89
2023/01/30 05:15:44;;;;;;;4.70;2.27;;;;;;;1.17;nan;102139.44;4775698;29;20488;-92
2023/01/30 05:18:11;;;;;;;5.23;3.43;;;;;;;1.18;nan;102130.41;4790550;29;20983;-90
2023/01/30 05:21:04;;;;;;;4.50;2.70;;;;;;;1.22;nan;102130.13;4790587;29;20470;-91
2023/01/30 05:23:37;;;;;;;4.60;2.63;;;;;;;1.24;nan;102128.19;4791312;29;20485;-91
2023/01/30 05:26:13;;;;;;;5.33;3.10;;;;;;;1.23;nan;102117.53;4790237;29;20522;-92
2023/01/30 05:28:41;;;;;;;6.00;2.90;;;;;;;1.24;nan;102125.50;4790691;29;20462;-90
2023/01/30 05:34:43;;;;;;;3.90;1.73;;;;;;;1.33;nan;102137.53;4809794;29;20969;-92
2023/01/30 05:37:26;;;;;;;3.77;2.40;;;;;;;1.33;nan;102135.69;4808654;29;20512;-90
2023/01/30 05:40:11;;;;;;;7.37;2.40;;;;;;;1.36;nan;102140.84;4779162;29;20470;-90
2023/01/30 05:43:06;;;;;;;3.60;2.50;;;;;;;1.41;nan;102139.69;4810923;29;20488;-92
2023/01/30 05:46:04;;;;;;;2.97;2.10;;;;;;;1.44;nan;102139.50;4807593;29;20545;-90
2023/01/30 05:48:39;;;;;;;4.20;2.60;;;;;;;1.36;nan;102138.16;4790850;30;20554;-92
2023/01/30 05:51:25;;;;;;;4.53;2.67;;;;;;;1.43;nan;102154.78;4790490;30;20857;-91
2023/01/30 05:53:57;;;;;;;6.60;2.70;;;;;;;1.41;nan;102155.84;4792011;29;20455;-90
2023/01/30 05:56:27;;;;;;;3.80;2.23;;;;;;;1.28;nan;102132.44;4793604;29;20600;-92
2023/01/30 05:59:04;;;;;;;8.20;2.53;;;;;;;1.43;nan;102145.84;4778743;29;20454;-91
2023/01/30 06:01:52;;;;;;;9.13;2.30;;;;;;;1.41;nan;102147.78;4793821;29;20454;-91
2023/01/30 06:04:19;;;;;;;3.83;2.00;;;;;;;1.32;nan;102144.75;4808181;29;20833;-91
2023/01/30 06:06:49;;;;;;;3.90;2.13;;;;;;;1.34;nan;102145.50;4778797;29;20542;-89
2023/01/30 06:09:26;;;;;;;4.87;2.20;;;;;;;1.34;nan;102141.94;4793826;29;20482;-91
2023/01/30 06:15:34;;;;;;;4.63;2.27;;;;;;;1.30;nan;102145.78;4809302;29;20476;-91
2023/01/30 06:18:02;;;;;;;4.77;2.40;;;;;;;1.30;nan;102151.19;4807242;29;20434;-92
2023/01/30 06:20:30;;;;;;;6.17;2.37;;;;;;;1.27;nan;102154.94;4802454;29;20459;-91
2023/01/30 06:22:57;;;;;;;4.30;2.37;;;;;;;1.27;nan;102157.63;4827218;29;20454;-90
2023/01/30 06:25:32;;;;;;;4.00;2.50;;;;;;;1.27;nan;102163.00;4788823;29;20458;-91
2023/01/30 06:27:59;;;;;;;3.23;2.00;;;;;;;1.28;nan;102153.09;4778117;29;20461;-91
2023/01/30 06:30:27;;;;;;;4.60;2.37;;;;;;;1.30;nan;102156.56;4793263;29;20564;-92
2023/01/30 06:32:54;;;;;;;4.50;2.37;;;;;;;1.33;nan;102168.00;4808124;29;20462;-89
2023/01/30 06:35:33;;;;;;;5.43;3.23;;;;;;;1.32;nan;102168.97;4792710;29;20520;-91
2023/01/30 06:38:02;;;;;;;3.47;1.97;;;;;;;1.30;nan;102170.91;4793239;29;20555;-90
2023/01/30 06:40:29;;;;;;;4.47;3.00;;;;;;;1.26;nan;102172.06;4792885;29;20485;-91
2023/01/30 06:43:17;;;;;;;2.67;1.70;;;;;;;1.27;nan;102173.78;4793116;29;20465;-90
2023/01/30 06:46:03;;;;;;;4.37;2.93;;;;;;;1.27;nan;102179.16;4808171;29;20450;-90
2023/01/30 06:48:37;;;;;;;4.53;2.70;;;;;;;1.26;nan;102180.13;4807763;29;20454;-89
2023/01/30 06:51:15;;;;;;;5.50;2.00;;;;;;;1.16;nan;102165.50;4807250;29;20509;-90
2023/01/30 06:57:30;;;;;;;3.20;2.00;;;;;;;1.22;nan;102183.09;4808820;29;20480;-91
2023/01/30 07:00:01;;;;;;;5.13;2.87;;;;;;;1.23;nan;102199.16;4777679;29;20550;-91
2023/01/30 07:02:33;;;;;;;6.50;2.70;;;;;;;1.19;nan;102184.16;4808446;29;20482;-91
2023/01/30 07:05:04;;;;;;;4.80;3.20;;;;;;;1.20;nan;102188.59;4793016;29;20458;-90
2023/01/30 07:07:34;;;;;;;4.53;2.47;;;;;;;1.22;nan;102186.66;4790740;29;20470;-90
2023/01/30 07:10:10;;;;;;;5.60;2.80;;;;;;;1.30;nan;102195.13;4777710;29;20538;-90
2023/01/30 07:12:39;;;;;;;7.70;4.60;;;;;;;1.23;nan;102201.00;4807228;29;20825;-92
2023/01/30 07:15:32;;;;;;;7.80;4.80;;;;;;;1.25;nan;102205.31;4777712;29;20461;-89
2023/01/30 07:18:29;;;;;;;16.20;9.60;;;;;;;1.23;nan;102218.03;4803831;29;20927;-90
2023/01/30 07:21:14;;;;;;;9.20;5.20;;;;;;;1.23;nan;102218.03;4801041;29;20489;-91
2023/01/30 07:23:42;;;;;;;8.33;4.10;;;;;;;1.12;nan;102209.78;4774634;30;20461;-90
2023/01/30 07:26:28;;;;;;;14.63;7.97;;;;;;;1.13;nan;102224.09;4771667;30;20464;-90
2023/01/30 07:28:57;;;;;;;11.43;6.07;;;;;;;1.14;nan;102242.84;4760325;30;20454;-91
2023/01/30 07:31:41;;;;;;;15.47;6.93;;;;;;;1.10;nan;102235.91;4760305;30;20495;-92
2023/01/30 07:34:19;;;;;;;25.33;13.17;;;;;;;1.08;nan;102243.22;4789403;29;20459;-90
2023/01/30 07:36:47;;;;;;;15.70;8.80;;;;;;;1.09;nan;102239.56;4774193;30;20462;-91
2023/01/30 07:39:22;;;;;;;16.73;7.97;;;;;;;1.12;nan;102250.16;4774288;30;20459;-90
2023/01/30 07:41:50;;;;;;;15.87;6.20;;;;;;;1.11;nan;102248.41;4774294;30;20462;-92
2023/01/30 07:44:25;;;;;;;14.37;7.27;;;;;;;1.15;nan;102257.19;4773947;30;20455;-90
2023/01/30 07:46:53;;;;;;;24.27;10.67;;;;;;;1.10;nan;102262.84;4804558;29;20455;-89
2023/01/30 07:49:22;;;;;;;12.40;7.03;;;;;;;1.08;nan;102253.13;4791075;29;20474;-90
2023/01/30 07:51:58;;;;;;;9.57;5.83;;;;;;;1.16;nan;102270.50;4774558;29;21021;-89
2023/01/30 07:54:50;;;;;;;14.73;6.73;;;;;;;1.18;nan;102270.41;4788889;29;20503;-91
2023/01/30 07:57:29;;;;;;;22.37;7.33;;;;;;;1.16;nan;102270.50;4788632;29;20455;-90
2023/01/30 07:59:58;;;;;;;12.17;6.07;;;;;;;1.15;nan;102268.81;4788525;29;20478;-89
2023/01/30 08:02:42;;;;;;;68.23;35.90;;;;;;;1.22;nan;102277.34;4774213;29;20459;-89
2023/01/30 08:08:51;;;;;;;22.13;12.53;;;;;;;1.28;nan;102294.00;4789610;30;20964;-91
2023/01/30 08:11:21;;;;;;;19.60;9.90;;;;;;;1.28;nan;102280.53;4787504;29;20490;-91
2023/01/30 08:13:56;;;;;;;19.60;10.20;;;;;;;1.34;nan;102290.94;4776337;29;20941;-90
2023/01/30 08:16:25;;;;;;;22.40;10.37;;;;;;;1.37;nan;102271.84;4794703;29;20470;-90
2023/01/30 08:23:00;;;;;;;13.60;7.40;;;;;;;1.57;nan;102288.59;4808189;29;20422;-93
2023/01/30 08:25:28;;;;;;;27.17;12.53;;;;;;;1.59;nan;102275.88;4806115;29;20826;-92
2023/01/30 08:32:03;;;;;;;23.23;10.73;;;;;;;1.74;nan;102286.53;4806562;29;20505;-92
2023/01/30 08:34:35;;;;;;;17.37;8.30;;;;;;;1.80;nan;102300.59;4805943;29;20473;-90
2023/01/30 08:37:03;;;;;;;23.87;9.37;;;;;;;1.75;nan;102287.41;4799425;29;20512;-93
2023/01/30 08:40:12;;;;;;;30.40;9.80;;;;;;;1.94;nan;102306.81;4789270;29;20463;-92
2023/01/30 08:42:42;;;;;;;30.40;10.27;;;;;;;2.00;nan;102297.47;4816495;29;20474;-90
2023/01/30 08:45:16;;;;;;;34.10;10.03;;;;;;;2.15;nan;102317.16;4791901;29;20511;-92
2023/01/30 08:52:03;;;;;;;22.50;9.20;;;;;;;2.43;nan;102327.88;4807037;29;20509;-90
2023/01/30 08:54:51;;;;;;;43.60;15.00;;;;;;;2.55;nan;102321.63;4806999;29;20472;-92
2023/01/30 08:57:35;;;;;;;20.53;10.80;;;;;;;2.68;nan;102327.94;4790272;29;20470;-91
2023/01/30 09:00:04;;;;;;;31.27;10.37;;;;;;;2.82;nan;102339.63;4787757;29;20808;-91
2023/01/30 09:06:12;;;;;;;34.73;10.50;;;;;;;3.09;nan;102335.88;4795494;29;20952;-91
2023/01/30 09:08:45;;;;;;;20.03;9.77;;;;;;;3.24;nan;102336.69;4794820;29;20469;-90
2023/01/30 09:11:48;;;;;;;22.87;11.13;;;;;;;3.39;nan;102341.00;4809713;29;20561;-91
2023/01/30 09:14:20;;;;;;;27.87;12.20;;;;;;;3.54;nan;102339.03;4809540;29;20474;-91
2023/01/30 09:16:54;;;;;;;23.33;11.90;;;;;;;3.69;nan;102342.47;4801903;29;20489;-90
2023/01/30 09:19:25;;;;;;;24.63;12.23;;;;;;;3.85;nan;102345.81;4796237;29;20469;-89
2023/01/30 09:21:58;;;;;;;27.03;13.13;;;;;;;3.93;nan;102338.00;4793850;29;20470;-90
2023/01/30 09:24:31;;;;;;;26.40;14.30;;;;;;;4.13;nan;102348.25;4779728;29;20456;-91
2023/01/30 09:27:06;;;;;;;31.53;15.00;;;;;;;4.22;nan;102340.44;4809133;29;20470;-92
2023/01/30 09:30:03;;;;;;;53.90;19.70;;;;;;;4.48;nan;102348.31;4795084;29;20450;-93
2023/01/30 09:32:31;;;;;;;52.00;18.23;;;;;;;4.66;nan;102340.66;4809648;29;20503;-89
2023/01/30 09:35:00;;;;;;;23.20;8.70;;;;;;;4.92;nan;102348.63;4793885;29;20458;-88
2023/01/30 09:37:29;;;;;;;38.90;19.17;;;;;;;5.20;nan;102350.94;4778996;29;21038;-88
2023/01/30 09:40:01;;;;;;;29.97;13.93;;;;;;;5.44;nan;102359.84;4779457;29;20458;-90
2023/01/30 09:43:09;;;;;;;16.27;6.70;;;;;;;5.73;nan;102349.41;4808365;29;20949;-91
2023/01/30 09:45:51;;;;;;;8.33;4.40;;;;;;;6.07;nan;102357.56;4807606;29;20474;-89
2023/01/30 09:48:32;;;;;;;8.43;2.20;;;;;;;6.36;nan;102352.44;4799592;29;20457;-90
2023/01/30 09:51:37;;;;;;;5.80;2.40;;;;;;;6.76;nan;102356.28;4793531;29;20845;-90
2023/01/30 09:54:28;;;;;;;2.60;1.40;;;;;;;7.11;nan;102360.59;4790933;30;20831;-89
2023/01/30 09:57:15;;;;;;;8.70;2.03;;;;;;;7.40;nan;102361.63;4799089;29;20473;-90
2023/01/30 10:00:09;;;;;;;3.00;1.40;;;;;;;7.69;nan;102356.38;4823434;29;20470;-90
2023/01/30 10:03:07;;;;;;;3.90;2.03;;;;;;;7.89;nan;102368.19;4823477;29;20949;-90
2023/01/30 10:06:13;;;;;;;3.93;1.60;;;;;;;7.99;nan;102363.66;4809443;29;20815;-91
2023/01/30 10:09:17;;;;;;;5.73;2.17;;;;;;;8.18;nan;102380.06;4778535;30;20453;-89
2023/01/30 10:12:23;;;;;;;4.57;1.60;;;;;;;8.36;nan;102374.84;4790296;30;20527;-89
2023/01/30 10:15:19;;;;;;;4.83;2.07;;;;;;;8.50;nan;102379.03;4807643;29;20523;-89
2023/01/30 10:18:06;;;;;;;2.63;1.90;;;;;;;8.65;nan;102377.66;4803313;29;20490;-90
2023/01/30 10:21:10;;;;;;;3.27;1.77;;;;;;;8.89;nan;102375.34;4779276;29;20457;-90
2023/01/30 10:23:59;;;;;;;4.70;2.03;;;;;;;9.08;nan;102376.34;4789659;29;20472;-90
2023/01/30 10:26:27;;;;;;;4.23;1.63;;;;;;;9.15;nan;102366.59;4804708;29;20489;-90
2023/01/30 10:29:07;;;;;;;7.63;1.80;;;;;;;9.25;nan;102379.22;4777126;29;20470;-90
2023/01/30 10:31:50;;;;;;;10.67;2.20;;;;;;;9.39;nan;102380.66;4790344;29;20526;-90
2023/01/30 10:34:42;;;;;;;4.10;1.80;;;;;;;9.50;nan;102379.63;4793087;29;20462;-90
2023/01/30 10:37:29;;;;;;;5.33;1.87;;;;;;;9.63;nan;102375.56;4807773;29;20450;-91
2023/01/30 10:40:36;;;;;;;5.03;1.73;;;;;;;9.81;nan;102383.88;4807470;29;20462;-90
2023/01/30 10:43:52;;;;;;;7.03;1.57;;;;;;;9.93;nan;102393.59;4822951;29;20462;-90
2023/01/30 10:46:28;;;;;;;6.87;1.90;;;;;;;10.13;nan;102388.91;4802119;29;20455;-90
2023/01/30 10:49:19;;;;;;;4.60;1.70;;;;;;;10.26;nan;102392.19;4822678;29;20490;-90
2023/01/30 10:52:23;;;;;;;5.83;1.83;;;;;;;10.43;nan;102398.72;4792869;29;20560;-90
2023/01/30 10:55:05;;;;;;;4.53;1.50;;;;;;;10.55;nan;102391.19;4822209;29;20483;-89
2023/01/30 11:01:24;;;;;;;2.43;1.50;;;;;;;10.93;nan;102392.78;4808664;29;20533;-90
2023/01/30 11:04:00;;;;;;;4.20;1.70;;;;;;;11.12;nan;102389.88;4806547;29;20451;-90
2023/01/30 11:06:53;;;;;;;6.87;1.80;;;;;;;11.33;nan;102395.91;4777817;29;20512;-90
2023/01/30 11:09:45;;;;;;;11.13;2.10;;;;;;;11.43;nan;102399.38;4806247;29;20458;-91
2023/01/30 11:12:13;;;;;;;3.47;1.80;;;;;;;11.52;nan;102386.63;4792117;29;21009;-90
2023/01/30 11:14:59;;;;;;;6.23;1.60;;;;;;;11.64;nan;102395.44;4792710;29;20466;-91
2023/01/30 11:17:44;;;;;;;9.37;1.60;;;;;;;11.73;nan;102386.28;4792457;29;20985;-91
2023/01/30 11:20:16;;;;;;;4.93;2.40;;;;;;;11.87;nan;102393.91;4792520;29;20454;-90
2023/01/30 11:22:47;;;;;;;12.03;2.17;;;;;;;11.92;nan;102386.06;4777144;29;20462;-90
2023/01/30 11:25:21;;;;;;;5.30;1.70;;;;;;;12.08;nan;102379.81;4792518;29;20542;-90
2023/01/30 11:27:55;;;;;;;13.63;2.23;;;;;;;12.15;nan;102374.53;4795926;29;20461;-91
2023/01/30 11:30:37;;;;;;;8.17;2.67;;;;;;;12.26;nan;102377.84;4795618;29;20465;-92
2023/01/30 11:33:20;;;;;;;7.70;2.30;;;;;;;12.44;nan;102377.75;4792403;30;20504;-91
2023/01/30 11:36:04;;;;;;;7.73;2.77;;;;;;;12.58;nan;102370.75;4778441;30;20994;-90
2023/01/30 11:38:41;;;;;;;6.40;1.60;;;;;;;12.64;nan;102357.25;4768480;29;20459;-89
2023/01/30 11:41:09;;;;;;;5.03;2.07;;;;;;;12.81;nan;102366.34;4788461;29;21036;-87
2023/01/30 11:43:41;;;;;;;9.93;1.30;;;;;;;12.89;nan;102363.63;4807854;29;20871;-89
2023/01/30 11:46:12;;;;;;;8.47;2.13;;;;;;;12.83;nan;102341.50;4776174;29;20957;-87
2023/01/30 11:48:54;;;;;;;24.10;2.40;;;;;;;13.03;nan;102348.38;4805266;29;20504;-86
2023/01/30 11:51:33;;;;;;;9.00;2.00;;;;;;;13.12;nan;102331.72;4788969;29;20517;-88
2023/01/30 11:54:12;;;;;;;7.33;1.80;;;;;;;13.38;nan;102352.69;4805473;29;21025;-87
2023/01/30 11:56:49;;;;;;;2.93;1.20;;;;;;;13.44;nan;102339.13;4802627;29;20462;-87
2023/01/30 11:59:35;;;;;;;6.10;1.63;;;;;;;13.59;nan;102339.28;4803519;29;20462;-87
2023/01/30 12:02:07;;;;;;;7.10;1.30;;;;;;;13.66;nan;102328.47;4804705;29;20473;-88
2023/01/30 12:04:36;;;;;;;3.40;1.10;;;;;;;13.70;nan;102325.16;4787896;29;20455;-86
2023/01/30 12:07:27;;;;;;;3.73;1.30;;;;;;;13.78;nan;102327.03;4804446;29;20466;-86
2023/01/30 12:09:57;;;;;;;2.33;1.07;;;;;;;13.76;nan;102305.22;4793013;29;20443;-87
2023/01/30 12:12:34;;;;;;;8.83;0.97;;;;;;;13.89;nan;102312.06;4804745;29;20498;-87
2023/01/30 12:15:27;;;;;;;3.33;0.80;;;;;;;13.99;nan;102318.22;4805729;29;20470;-87
2023/01/30 12:17:58;;;;;;;10.63;1.03;;;;;;;14.06;nan;102310.94;4805722;29;21020;-87
2023/01/30 12:20:39;;;;;;;2.80;1.00;;;;;;;14.13;nan;102309.22;4820148;29;20473;-88
2023/01/30 12:23:15;;;;;;;5.63;1.13;;;;;;;14.18;nan;102304.91;4820079;29;20454;-87
2023/01/30 12:25:53;;;;;;;4.30;0.87;;;;;;;14.34;nan;102306.69;4789274;29;20457;-86
2023/01/30 12:28:47;;;;;;;10.20;1.20;;;;;;;14.39;nan;102285.00;4820508;29;20456;-87
2023/01/30 12:31:21;;;;;;;5.07;1.10;;;;;;;14.49;nan;102271.03;4801814;29;20538;-87
2023/01/30 12:33:49;;;;;;;3.83;0.80;;;;;;;14.55;nan;102280.47;4704704;30;20465;-88
2023/01/30 12:36:47;;;;;;;6.53;1.30;;;;;;;14.62;nan;102265.81;4685683;30;20538;-87
2023/01/30 12:39:48;;;;;;;5.40;1.50;;;;;;;14.71;nan;102270.19;4711994;30;20462;-87
2023/01/30 12:42:34;;;;;;;2.60;0.97;;;;;;;14.83;nan;102263.22;4731337;30;20465;-87
2023/01/30 12:45:11;;;;;;;11.00;1.47;;;;;;;14.96;nan;102257.09;4731672;30;20473;-86
2023/01/30 12:48:07;;;;;;;3.10;1.50;;;;;;;15.05;nan;102250.47;4732151;30;20461;-87
2023/01/30 12:51:12;;;;;;;3.70;1.20;;;;;;;15.15;nan;102253.81;4728945;30;20565;-87
2023/01/30 12:54:19;;;;;;;3.30;1.00;;;;;;;15.26;nan;102243.38;4777696;30;20491;-88
2023/01/30 12:56:56;;;;;;;7.23;1.50;;;;;;;15.26;nan;102247.00;4819615;29;20446;-87
2023/01/30 12:59:37;;;;;;;3.40;1.10;;;;;;;15.31;nan;102240.91;4803137;29;20458;-87
2023/01/30 13:02:38;;;;;;;4.33;1.30;;;;;;;15.41;nan;102241.50;4804766;29;20473;-88
2023/01/30 13:05:33;;;;;;;3.20;1.30;;;;;;;15.39;nan;102229.81;4803941;29;20968;-87
2023/01/30 13:08:22;;;;;;;3.67;1.47;;;;;;;15.50;nan;102238.47;4806950;29;20858;-87
2023/01/30 13:10:59;;;;;;;5.53;1.20;;;;;;;15.64;nan;102242.28;4803856;29;20466;-87
2023/01/30 13:13:34;;;;;;;5.87;1.70;;;;;;;15.74;nan;102233.75;4804007;29;20465;-87
2023/01/30 13:16:15;;;;;;;5.53;1.80;;;;;;;15.78;nan;102230.38;4819440;29;20476;-87
2023/01/30 13:18:51;;;;;;;5.30;1.30;;;;;;;15.80;nan;102228.31;4804500;29;20809;-87
2023/01/30 13:21:33;;;;;;;3.50;1.13;;;;;;;15.86;nan;102227.53;4790760;29;20461;-86
2023/01/30 13:24:31;;;;;;;3.87;1.30;;;;;;;15.95;nan;102227.44;4790175;29;20459;-86
2023/01/30 13:26:59;;;;;;;2.60;0.90;;;;;;;15.95;nan;102220.03;4791111;29;20462;-87
2023/01/30 13:29:36;;;;;;;8.57;1.50;;;;;;;16.03;nan;102216.28;4790571;29;20457;-87
2023/01/30 13:32:17;;;;;;;4.90;1.43;;;;;;;16.00;nan;102200.97;4800064;29;20494;-89
2023/01/30 13:34:48;;;;;;;5.30;1.90;;;;;;;16.08;nan;102197.25;4790064;29;20458;-88
2023/01/30 13:37:19;;;;;;;7.57;1.33;;;;;;;16.18;nan;102208.81;4797259;29;20447;-88
2023/01/30 13:40:05;;;;;;;3.17;1.13;;;;;;;16.21;nan;102192.75;4791285;29;20465;-89
2023/01/30 13:42:56;;;;;;;6.57;1.30;;;;;;;16.21;nan;102189.13;4805758;29;20447;-87
2023/01/30 13:45:26;;;;;;;3.07;1.30;;;;;;;16.28;nan;102190.06;4808501;29;20553;-87
2023/01/30 13:48:34;;;;;;;4.90;1.60;;;;;;;16.38;nan;102181.44;4793553;29;20610;-88
2023/01/30 13:51:23;;;;;;;3.63;1.50;;;;;;;16.43;nan;102190.84;4798084;29;20466;-88
2023/01/30 13:53:57;;;;;;;5.43;1.57;;;;;;;16.46;nan;102182.19;4807354;29;20454;-87
2023/01/30 13:56:38;;;;;;;3.63;1.50;;;;;;;16.46;nan;102179.41;4793047;30;20553;-89
2023/01/30 13:59:26;;;;;;;4.07;1.60;;;;;;;16.57;nan;102187.16;4797006;29;20471;-88
2023/01/30 14:02:08;;;;;;;3.50;1.83;;;;;;;16.66;nan;102184.31;4790906;29;20623;-88